sensor_id;sensor_type;location;lat;lon;timestamp;pressure;altitude;pressure_sealevel;temperature;humidity
9672;BME280;4874;43.568;27.824;2022-10-31T00:00:54;99251.69;;;15.19;100.00
9672;BME280;4874;43.568;27.824;2022-10-31T00:03:21;99211.38;;;14.88;100.00
9672;BME280;4874;43.568;27.824;2022-10-31T00:05:49;99240.31;;;15.01;100.00
9672;BME280;4874;43.568;27.824;2022-10-31T00:08:16;99202.19;;;14.83;100.00
9672;BME280;4874;43.568;27.824;2022-10-31T00:10:44;99247.19;;;15.11;100.00
9672;BME280;4874;43.568;27.824;2022-10-31T00:24:14;99242.13;;;15.08;100.00
9672;BME280;4874;43.568;27.824;2022-10-31T00:26:40;99242.00;;;15.10;100.00
9672;BME280;4874;43.568;27.824;2022-10-31T00:29:07;99236.31;;;15.13;100.00
9672;BME280;4874;43.568;27.824;2022-10-31T00:31:34;99238.81;;;15.06;100.00
9672;BME280;4874;43.568;27.824;2022-10-31T00:34:00;99235.81;;;15.09;100.00
9672;BME280;4874;43.568;27.824;2022-10-31T00:36:29;99243.66;;;15.11;100.00
9672;BME280;4874;43.568;27.824;2022-10-31T00:38:57;99243.50;;;15.12;100.00
9672;BME280;4874;43.568;27.824;2022-10-31T00:41:24;99237.81;;;15.07;100.00
9672;BME280;4874;43.568;27.824;2022-10-31T00:43:51;99239.47;;;15.00;100.00
9672;BME280;4874;43.568;27.824;2022-10-31T00:46:17;99241.63;;;14.97;100.00
9672;BME280;4874;43.568;27.824;2022-10-31T00:48:44;99242.66;;;14.96;100.00
9672;BME280;4874;43.568;27.824;2022-10-31T00:51:11;99240.31;;;15.01;100.00
9672;BME280;4874;43.568;27.824;2022-10-31T00:53:37;99240.44;;;14.83;100.00
9672;BME280;4874;43.568;27.824;2022-10-31T00:56:04;99243.13;;;14.83;100.00
9672;BME280;4874;43.568;27.824;2022-10-31T00:58:31;99240.44;;;14.91;100.00
9672;BME280;4874;43.568;27.824;2022-10-31T01:00:58;99236.63;;;15.02;100.00
9672;BME280;4874;43.568;27.824;2022-10-31T01:03:27;99229.28;;;14.96;100.00
9672;BME280;4874;43.568;27.824;2022-10-31T01:06:15;99242.13;;;15.08;100.00
9672;BME280;4874;43.568;27.824;2022-10-31T01:08:42;99244.97;;;15.07;100.00
9672;BME280;4874;43.568;27.824;2022-10-31T01:11:15;99245.31;;;15.04;100.00
9672;BME280;4874;43.568;27.824;2022-10-31T01:13:42;99245.66;;;15.09;100.00
9672;BME280;4874;43.568;27.824;2022-10-31T01:16:15;99241.66;;;15.13;100.00
9672;BME280;4874;43.568;27.824;2022-10-31T01:18:43;99245.66;;;15.17;100.00
9672;BME280;4874;43.568;27.824;2022-10-31T01:21:12;99236.63;;;15.02;100.00
9672;BME280;4874;43.568;27.824;2022-10-31T01:23:39;99235.13;;;15.07;100.00
9672;BME280;4874;43.568;27.824;2022-10-31T01:26:26;99239.81;;;15.13;100.00
9672;BME280;4874;43.568;27.824;2022-10-31T01:29:03;99233.63;;;15.13;100.00
9672;BME280;4874;43.568;27.824;2022-10-31T01:31:32;99238.66;;;15.16;100.00
9672;BME280;4874;43.568;27.824;2022-10-31T01:34:00;99232.78;;;14.96;100.00
9672;BME280;4874;43.568;27.824;2022-10-31T01:36:35;99236.47;;;14.95;100.00
9672;BME280;4874;43.568;27.824;2022-10-31T01:39:05;99233.63;;;14.97;100.00
9672;BME280;4874;43.568;27.824;2022-10-31T01:41:35;99230.78;;;14.98;100.00
9672;BME280;4874;43.568;27.824;2022-10-31T01:46:56;99221.59;;;14.93;100.00
9672;BME280;4874;43.568;27.824;2022-10-31T01:52:16;99194.00;;;14.76;100.00
9672;BME280;4874;43.568;27.824;2022-10-31T01:54:51;99223.59;;;14.91;100.00
9672;BME280;4874;43.568;27.824;2022-10-31T01:57:20;99220.25;;;14.89;100.00
9672;BME280;4874;43.568;27.824;2022-10-31T01:59:50;99217.91;;;14.94;100.00
9672;BME280;4874;43.568;27.824;2022-10-31T02:02:19;99218.94;;;15.01;100.00
9672;BME280;4874;43.568;27.824;2022-10-31T02:04:47;99219.56;;;14.95;100.00
9672;BME280;4874;43.568;27.824;2022-10-31T02:07:17;99212.88;;;14.83;100.00
9672;BME280;4874;43.568;27.824;2022-10-31T02:09:45;99187.13;;;14.58;100.00
9672;BME280;4874;43.568;27.824;2022-10-31T02:12:14;99229.25;;;14.88;100.00
9672;BME280;4874;43.568;27.824;2022-10-31T02:14:41;99231.13;;;14.87;100.00
9672;BME280;4874;43.568;27.824;2022-10-31T02:17:08;99232.38;;;14.67;100.00
9672;BME280;4874;43.568;27.824;2022-10-31T02:20:01;99227.53;;;14.55;100.00
9672;BME280;4874;43.568;27.824;2022-10-31T02:33:51;99232.00;;;14.12;100.00
9672;BME280;4874;43.568;27.824;2022-10-31T02:36:21;99242.69;;;14.12;100.00
9672;BME280;4874;43.568;27.824;2022-10-31T02:39:06;99250.34;;;14.07;100.00
9672;BME280;4874;43.568;27.824;2022-10-31T02:41:49;99254.44;;;13.94;100.00
9672;BME280;4874;43.568;27.824;2022-10-31T02:44:38;99256.94;;;13.95;100.00
9672;BME280;4874;43.568;27.824;2022-10-31T02:47:08;99260.47;;;13.96;100.00
9672;BME280;4874;43.568;27.824;2022-10-31T02:52:18;99261.47;;;13.95;100.00
9672;BME280;4874;43.568;27.824;2022-10-31T02:54:46;99266.69;;;14.04;100.00
9672;BME280;4874;43.568;27.824;2022-10-31T02:57:15;99226.00;;;13.77;100.00
9672;BME280;4874;43.568;27.824;2022-10-31T03:00:12;99277.25;;;14.14;100.00
9672;BME280;4874;43.568;27.824;2022-10-31T03:15:58;99247.38;;;14.10;100.00
9672;BME280;4874;43.568;27.824;2022-10-31T03:18:39;99257.41;;;14.16;100.00
9672;BME280;4874;43.568;27.824;2022-10-31T03:21:14;99281.84;;;14.30;100.00
9672;BME280;4874;43.568;27.824;2022-10-31T03:23:44;99275.69;;;14.29;100.00
9672;BME280;4874;43.568;27.824;2022-10-31T03:26:13;99267.19;;;14.34;100.00
9672;BME280;4874;43.568;27.824;2022-10-31T03:28:46;99275.22;;;14.42;100.00
9672;BME280;4874;43.568;27.824;2022-10-31T03:31:17;99279.78;;;14.49;100.00
9672;BME280;4874;43.568;27.824;2022-10-31T03:33:46;99255.47;;;14.27;100.00
9672;BME280;4874;43.568;27.824;2022-10-31T03:36:15;99284.94;;;14.51;100.00
9672;BME280;4874;43.568;27.824;2022-10-31T03:38:43;99281.56;;;14.41;100.00
9672;BME280;4874;43.568;27.824;2022-10-31T03:41:18;99285.31;;;14.56;100.00
9672;BME280;4874;43.568;27.824;2022-10-31T03:43:54;99287.97;;;14.56;100.00
9672;BME280;4874;43.568;27.824;2022-10-31T03:46:22;99288.31;;;14.53;100.00
9672;BME280;4874;43.568;27.824;2022-10-31T03:48:49;99301.66;;;14.53;100.00
9672;BME280;4874;43.568;27.824;2022-10-31T03:51:31;99301.31;;;14.48;100.00
9672;BME280;4874;43.568;27.824;2022-10-31T03:54:43;99302.91;;;14.33;100.00
9672;BME280;4874;43.568;27.824;2022-10-31T04:00:07;99321.81;;;14.39;100.00
9672;BME280;4874;43.568;27.824;2022-10-31T04:02:55;99317.78;;;14.17;100.00
9672;BME280;4874;43.568;27.824;2022-10-31T04:05:25;99329.16;;;13.94;100.00
9672;BME280;4874;43.568;27.824;2022-10-31T04:07:54;99323.06;;;14.01;100.00
9672;BME280;4874;43.568;27.824;2022-10-31T04:10:24;99330.78;;;13.87;100.00
9672;BME280;4874;43.568;27.824;2022-10-31T04:13:01;99340.00;;;13.92;100.00
9672;BME280;4874;43.568;27.824;2022-10-31T04:15:30;99347.66;;;13.87;100.00
9672;BME280;4874;43.568;27.824;2022-10-31T04:17:59;99344.94;;;13.79;100.00
9672;BME280;4874;43.568;27.824;2022-10-31T04:20:47;99347.09;;;14.01;100.00
9672;BME280;4874;43.568;27.824;2022-10-31T04:23:25;99350.31;;;14.13;100.00
9672;BME280;4874;43.568;27.824;2022-10-31T04:25:52;99353.69;;;14.15;100.00
9672;BME280;4874;43.568;27.824;2022-10-31T04:28:19;99356.88;;;14.18;100.00
9672;BME280;4874;43.568;27.824;2022-10-31T04:30:45;99295.81;;;13.90;100.00
9672;BME280;4874;43.568;27.824;2022-10-31T04:33:12;99341.47;;;14.38;100.00
9672;BME280;4874;43.568;27.824;2022-10-31T04:35:39;99353.44;;;14.52;100.00
9672;BME280;4874;43.568;27.824;2022-10-31T04:38:06;99354.41;;;14.51;100.00
9672;BME280;4874;43.568;27.824;2022-10-31T04:40:32;99352.13;;;14.30;100.00
9672;BME280;4874;43.568;27.824;2022-10-31T04:42:59;99347.34;;;14.42;100.00
9672;BME280;4874;43.568;27.824;2022-10-31T04:45:26;99357.91;;;14.43;100.00
9672;BME280;4874;43.568;27.824;2022-10-31T04:47:52;99352.09;;;14.56;100.00
9672;BME280;4874;43.568;27.824;2022-10-31T04:50:19;99345.78;;;14.65;100.00
9672;BME280;4874;43.568;27.824;2022-10-31T04:52:46;99348.13;;;14.60;100.00
9672;BME280;4874;43.568;27.824;2022-10-31T04:55:13;99349.72;;;14.45;100.00
9672;BME280;4874;43.568;27.824;2022-10-31T04:57:41;99356.59;;;14.55;100.00
9672;BME280;4874;43.568;27.824;2022-10-31T05:00:09;99357.41;;;14.48;100.00
9672;BME280;4874;43.568;27.824;2022-10-31T05:02:44;99355.59;;;14.48;100.00
9672;BME280;4874;43.568;27.824;2022-10-31T05:05:13;99359.75;;;14.51;100.00
9672;BME280;4874;43.568;27.824;2022-10-31T05:07:41;99360.09;;;14.56;100.00
9672;BME280;4874;43.568;27.824;2022-10-31T05:10:10;99366.63;;;14.53;100.00
9672;BME280;4874;43.568;27.824;2022-10-31T05:12:37;99371.31;;;14.59;100.00
9672;BME280;4874;43.568;27.824;2022-10-31T05:15:05;99374.66;;;14.61;100.00
9672;BME280;4874;43.568;27.824;2022-10-31T05:17:32;99379.06;;;14.70;100.00
9672;BME280;4874;43.568;27.824;2022-10-31T05:19:58;99376.38;;;14.70;100.00
9672;BME280;4874;43.568;27.824;2022-10-31T05:22:25;99383.91;;;14.75;100.00
9672;BME280;4874;43.568;27.824;2022-10-31T05:24:52;99365.03;;;14.68;100.00
9672;BME280;4874;43.568;27.824;2022-10-31T05:27:18;99393.97;;;14.81;100.00
9672;BME280;4874;43.568;27.824;2022-10-31T05:29:45;99384.59;;;14.77;100.00
9672;BME280;4874;43.568;27.824;2022-10-31T05:32:12;99382.44;;;14.80;100.00
9672;BME280;4874;43.568;27.824;2022-10-31T05:34:38;99387.47;;;14.83;100.00
9672;BME280;4874;43.568;27.824;2022-10-31T05:37:05;99392.69;;;14.93;100.00
9672;BME280;4874;43.568;27.824;2022-10-31T05:39:32;99394.97;;;14.88;100.00
9672;BME280;4874;43.568;27.824;2022-10-31T05:41:58;99396.13;;;14.77;100.00
9672;BME280;4874;43.568;27.824;2022-10-31T05:44:25;99417.53;;;14.85;100.00
9672;BME280;4874;43.568;27.824;2022-10-31T05:46:51;99406.16;;;14.75;100.00
9672;BME280;4874;43.568;27.824;2022-10-31T05:49:18;99407.28;;;14.73;100.00
9672;BME280;4874;43.568;27.824;2022-10-31T05:51:45;99417.78;;;14.66;100.00
9672;BME280;4874;43.568;27.824;2022-10-31T05:54:11;99416.19;;;14.81;100.00
9672;BME280;4874;43.568;27.824;2022-10-31T05:56:41;99419.22;;;14.86;100.00
9672;BME280;4874;43.568;27.824;2022-10-31T05:59:07;99416.00;;;15.16;100.00
9672;BME280;4874;43.568;27.824;2022-10-31T06:01:34;99422.03;;;15.26;100.00
9672;BME280;4874;43.568;27.824;2022-10-31T06:04:01;99411.78;;;15.64;100.00
9672;BME280;4874;43.568;27.824;2022-10-31T06:06:27;99420.66;;;15.96;100.00
9672;BME280;4874;43.568;27.824;2022-10-31T06:08:54;99412.81;;;16.11;100.00
9672;BME280;4874;43.568;27.824;2022-10-31T06:11:21;99422.28;;;16.45;100.00
9672;BME280;4874;43.568;27.824;2022-10-31T06:13:47;99435.72;;;16.54;100.00
9672;BME280;4874;43.568;27.824;2022-10-31T06:16:14;99429.28;;;16.79;100.00
9672;BME280;4874;43.568;27.824;2022-10-31T06:18:41;99432.97;;;16.86;100.00
9672;BME280;4874;43.568;27.824;2022-10-31T06:21:07;99413.59;;;16.60;100.00
9672;BME280;4874;43.568;27.824;2022-10-31T06:23:34;99439.72;;;16.58;100.00
9672;BME280;4874;43.568;27.824;2022-10-31T06:26:01;99432.03;;;16.55;100.00
9672;BME280;4874;43.568;27.824;2022-10-31T06:28:28;99441.22;;;16.76;100.00
9672;BME280;4874;43.568;27.824;2022-10-31T06:30:54;99439.41;;;16.61;100.00
9672;BME280;4874;43.568;27.824;2022-10-31T06:33:21;99449.47;;;16.59;100.00
9672;BME280;4874;43.568;27.824;2022-10-31T06:35:48;99434.69;;;16.63;100.00
9672;BME280;4874;43.568;27.824;2022-10-31T06:38:14;99453.59;;;16.77;100.00
9672;BME280;4874;43.568;27.824;2022-10-31T06:40:41;99447.78;;;16.66;100.00
9672;BME280;4874;43.568;27.824;2022-10-31T06:43:07;99429.69;;;16.43;100.00
9672;BME280;4874;43.568;27.824;2022-10-31T06:45:34;99452.50;;;16.56;100.00
9672;BME280;4874;43.568;27.824;2022-10-31T06:48:01;99432.47;;;16.82;100.00
9672;BME280;4874;43.568;27.824;2022-10-31T06:50:44;99447.94;;;17.19;100.00
9672;BME280;4874;43.568;27.824;2022-10-31T06:53:11;99440.06;;;17.17;100.00
9672;BME280;4874;43.568;27.824;2022-10-31T06:55:38;99449.19;;;17.70;100.00
9672;BME280;4874;43.568;27.824;2022-10-31T06:58:05;99440.66;;;17.66;100.00
9672;BME280;4874;43.568;27.824;2022-10-31T07:00:32;99448.72;;;17.89;100.00
9672;BME280;4874;43.568;27.824;2022-10-31T07:03:01;99442.28;;;17.98;100.00
9672;BME280;4874;43.568;27.824;2022-10-31T07:05:28;99439.78;;;17.96;100.00
9672;BME280;4874;43.568;27.824;2022-10-31T07:08:00;99427.22;;;18.11;100.00
9672;BME280;4874;43.568;27.824;2022-10-31T07:10:31;99456.00;;;18.03;100.00
9672;BME280;4874;43.568;27.824;2022-10-31T07:13:01;99452.50;;;18.39;100.00
9672;BME280;4874;43.568;27.824;2022-10-31T07:15:32;99451.63;;;18.47;100.00
9672;BME280;4874;43.568;27.824;2022-10-31T07:18:00;99448.94;;;18.61;100.00
9672;BME280;4874;43.568;27.824;2022-10-31T07:20:28;99456.75;;;18.71;100.00
9672;BME280;4874;43.568;27.824;2022-10-31T07:22:55;99452.19;;;18.57;100.00
9672;BME280;4874;43.568;27.824;2022-10-31T07:25:22;99443.03;;;18.66;100.00
9672;BME280;4874;43.568;27.824;2022-10-31T07:27:49;99464.63;;;18.72;100.00
9672;BME280;4874;43.568;27.824;2022-10-31T07:30:17;99448.81;;;18.92;100.00
9672;BME280;4874;43.568;27.824;2022-10-31T07:32:45;99448.97;;;18.91;100.00
9672;BME280;4874;43.568;27.824;2022-10-31T07:35:14;99446.25;;;19.20;100.00
9672;BME280;4874;43.568;27.824;2022-10-31T07:37:41;99445.63;;;19.18;100.00
9672;BME280;4874;43.568;27.824;2022-10-31T07:40:08;99454.25;;;19.28;100.00
9672;BME280;4874;43.568;27.824;2022-10-31T07:42:44;99445.22;;;19.50;100.00
9672;BME280;4874;43.568;27.824;2022-10-31T07:45:13;99417.34;;;19.07;100.00
9672;BME280;4874;43.568;27.824;2022-10-31T07:48:00;99448.59;;;19.08;100.00
9672;BME280;4874;43.568;27.824;2022-10-31T07:50:30;99449.81;;;19.35;100.00
9672;BME280;4874;43.568;27.824;2022-10-31T07:53:05;99444.69;;;19.75;100.00
9672;BME280;4874;43.568;27.824;2022-10-31T07:55:33;99448.53;;;19.66;100.00
9672;BME280;4874;43.568;27.824;2022-10-31T07:58:03;99429.66;;;19.66;100.00
9672;BME280;4874;43.568;27.824;2022-10-31T08:00:31;99440.44;;;19.31;100.00
9672;BME280;4874;43.568;27.824;2022-10-31T08:03:06;99431.44;;;19.59;100.00
9672;BME280;4874;43.568;27.824;2022-10-31T08:05:34;99445.16;;;19.79;100.00
9672;BME280;4874;43.568;27.824;2022-10-31T08:08:02;99445.91;;;19.73;100.00
9672;BME280;4874;43.568;27.824;2022-10-31T08:10:30;99447.06;;;19.85;100.00
9672;BME280;4874;43.568;27.824;2022-10-31T08:12:59;99449.59;;;19.51;100.00
9672;BME280;4874;43.568;27.824;2022-10-31T08:15:27;99444.41;;;19.20;100.00
9672;BME280;4874;43.568;27.824;2022-10-31T08:17:53;99451.00;;;19.18;100.00
9672;BME280;4874;43.568;27.824;2022-10-31T08:20:21;99456.38;;;19.47;100.00
9672;BME280;4874;43.568;27.824;2022-10-31T08:23:04;99449.50;;;19.59;100.00
9672;BME280;4874;43.568;27.824;2022-10-31T08:25:33;99445.28;;;19.71;100.00
9672;BME280;4874;43.568;27.824;2022-10-31T08:28:02;99443.28;;;19.44;100.00
9672;BME280;4874;43.568;27.824;2022-10-31T08:30:31;99426.19;;;19.51;100.00
9672;BME280;4874;43.568;27.824;2022-10-31T08:33:17;99452.72;;;19.90;100.00
9672;BME280;4874;43.568;27.824;2022-10-31T08:35:44;99449.31;;;20.03;100.00
9672;BME280;4874;43.568;27.824;2022-10-31T08:38:12;99455.53;;;19.82;100.00
9672;BME280;4874;43.568;27.824;2022-10-31T08:40:39;99453.41;;;19.99;100.00
9672;BME280;4874;43.568;27.824;2022-10-31T08:43:11;99449.97;;;20.05;100.00
9672;BME280;4874;43.568;27.824;2022-10-31T08:45:38;99449.50;;;20.01;100.00
9672;BME280;4874;43.568;27.824;2022-10-31T08:48:09;99409.16;;;19.86;100.00
9672;BME280;4874;43.568;27.824;2022-10-31T08:50:36;99393.63;;;19.88;100.00
9672;BME280;4874;43.568;27.824;2022-10-31T08:53:09;99447.66;;;20.44;100.00
9672;BME280;4874;43.568;27.824;2022-10-31T08:55:38;99444.38;;;20.06;100.00
9672;BME280;4874;43.568;27.824;2022-10-31T08:58:07;99433.16;;;20.03;100.00
9672;BME280;4874;43.568;27.824;2022-10-31T09:00:35;99453.25;;;20.21;100.00
9672;BME280;4874;43.568;27.824;2022-10-31T09:03:05;99442.63;;;19.99;100.00
9672;BME280;4874;43.568;27.824;2022-10-31T09:05:33;99449.06;;;20.40;100.00
9672;BME280;4874;43.568;27.824;2022-10-31T09:08:01;99454.09;;;20.43;100.00
9672;BME280;4874;43.568;27.824;2022-10-31T09:10:30;99455.41;;;20.53;100.00
9672;BME280;4874;43.568;27.824;2022-10-31T09:13:02;99441.75;;;20.34;100.00
9672;BME280;4874;43.568;27.824;2022-10-31T09:15:37;99459.50;;;20.70;100.00
9672;BME280;4874;43.568;27.824;2022-10-31T09:18:09;99454.47;;;20.67;100.00
9672;BME280;4874;43.568;27.824;2022-10-31T09:20:37;99447.19;;;20.40;100.00
9672;BME280;4874;43.568;27.824;2022-10-31T09:23:10;99444.06;;;20.64;100.00
9672;BME280;4874;43.568;27.824;2022-10-31T09:25:37;99439.22;;;20.53;100.00
9672;BME280;4874;43.568;27.824;2022-10-31T09:28:06;99436.47;;;20.74;100.00
9672;BME280;4874;43.568;27.824;2022-10-31T09:30:34;99443.66;;;20.95;100.00
9672;BME280;4874;43.568;27.824;2022-10-31T09:33:06;99435.69;;;21.15;100.00
9672;BME280;4874;43.568;27.824;2022-10-31T09:35:33;99444.22;;;20.84;100.00
9672;BME280;4874;43.568;27.824;2022-10-31T09:38:09;99430.44;;;21.07;100.00
9672;BME280;4874;43.568;27.824;2022-10-31T09:45:53;99431.47;;;20.99;100.00
9672;BME280;4874;43.568;27.824;2022-10-31T09:51:05;99435.09;;;21.19;100.00
9672;BME280;4874;43.568;27.824;2022-10-31T09:53:57;99444.28;;;21.31;100.00
9672;BME280;4874;43.568;27.824;2022-10-31T09:56:26;99436.03;;;21.46;100.00
9672;BME280;4874;43.568;27.824;2022-10-31T09:59:04;99437.94;;;21.58;100.00
9672;BME280;4874;43.568;27.824;2022-10-31T10:01:48;99446.66;;;21.47;100.00
9672;BME280;4874;43.568;27.824;2022-10-31T10:07:16;99402.34;;;21.42;100.00
9672;BME280;4874;43.568;27.824;2022-10-31T10:09:45;99432.94;;;21.55;100.00
9672;BME280;4874;43.568;27.824;2022-10-31T10:12:28;99396.63;;;21.11;100.00
9672;BME280;4874;43.568;27.824;2022-10-31T10:25:40;99417.81;;;21.74;100.00
9672;BME280;4874;43.568;27.824;2022-10-31T10:28:26;99397.03;;;21.68;100.00
9672;BME280;4874;43.568;27.824;2022-10-31T10:31:23;99413.25;;;21.74;100.00
9672;BME280;4874;43.568;27.824;2022-10-31T10:36:36;99414.59;;;22.11;96.27
9672;BME280;4874;43.568;27.824;2022-10-31T10:41:55;99408.09;;;21.86;99.49
9672;BME280;4874;43.568;27.824;2022-10-31T10:44:47;99411.88;;;22.24;97.09
9672;BME280;4874;43.568;27.824;2022-10-31T10:47:41;99414.81;;;22.23;96.54
9672;BME280;4874;43.568;27.824;2022-10-31T10:50:27;99405.03;;;22.54;94.83
9672;BME280;4874;43.568;27.824;2022-10-31T10:56:27;99420.84;;;22.31;93.72
9672;BME280;4874;43.568;27.824;2022-10-31T10:58:57;99407.47;;;21.84;96.24
9672;BME280;4874;43.568;27.824;2022-10-31T11:01:24;99406.91;;;22.28;100.00
9672;BME280;4874;43.568;27.824;2022-10-31T11:03:51;99399.81;;;22.40;96.15
9672;BME280;4874;43.568;27.824;2022-10-31T11:06:20;99398.97;;;22.13;93.53
9672;BME280;4874;43.568;27.824;2022-10-31T11:08:52;99396.09;;;22.14;91.10
9672;BME280;4874;43.568;27.824;2022-10-31T11:11:31;99397.53;;;22.04;89.03
9672;BME280;4874;43.568;27.824;2022-10-31T11:14:13;99411.25;;;22.48;88.31
9672;BME280;4874;43.568;27.824;2022-10-31T11:16:47;99402.72;;;22.45;87.55
9672;BME280;4874;43.568;27.824;2022-10-31T11:19:23;99344.47;;;22.29;85.88
9672;BME280;4874;43.568;27.824;2022-10-31T11:21:52;99376.50;;;22.52;90.11
9672;BME280;4874;43.568;27.824;2022-10-31T11:24:21;99392.94;;;22.50;89.22
9672;BME280;4874;43.568;27.824;2022-10-31T11:26:49;99358.38;;;22.46;88.14
9672;BME280;4874;43.568;27.824;2022-10-31T11:29:25;99394.59;;;22.51;89.68
9672;BME280;4874;43.568;27.824;2022-10-31T11:31:55;99388.34;;;22.51;93.29
9672;BME280;4874;43.568;27.824;2022-10-31T11:34:31;99389.13;;;22.90;94.49
9672;BME280;4874;43.568;27.824;2022-10-31T11:37:23;99391.94;;;22.64;93.04
9672;BME280;4874;43.568;27.824;2022-10-31T11:39:58;99358.78;;;22.49;91.67
9672;BME280;4874;43.568;27.824;2022-10-31T11:42:27;99391.72;;;22.40;92.32
9672;BME280;4874;43.568;27.824;2022-10-31T11:44:56;99378.19;;;22.20;93.89
9672;BME280;4874;43.568;27.824;2022-10-31T11:47:30;99378.81;;;22.02;95.12
9672;BME280;4874;43.568;27.824;2022-10-31T11:50:02;99355.88;;;21.72;97.98
9672;BME280;4874;43.568;27.824;2022-10-31T11:52:37;99377.97;;;22.15;95.36
9672;BME280;4874;43.568;27.824;2022-10-31T11:57:50;99378.38;;;22.25;94.52
9672;BME280;4874;43.568;27.824;2022-10-31T12:00:27;99376.09;;;22.29;95.06
9672;BME280;4874;43.568;27.824;2022-10-31T12:05:44;99380.88;;;22.46;96.49
9672;BME280;4874;43.568;27.824;2022-10-31T12:08:13;99376.28;;;22.47;92.54
9672;BME280;4874;43.568;27.824;2022-10-31T12:19:10;99341.94;;;22.47;89.32
9672;BME280;4874;43.568;27.824;2022-10-31T12:24:50;99380.03;;;22.39;94.17
9672;BME280;4874;43.568;27.824;2022-10-31T12:27:34;99382.34;;;22.55;91.89
9672;BME280;4874;43.568;27.824;2022-10-31T12:30:19;99377.13;;;22.60;89.59
9672;BME280;4874;43.568;27.824;2022-10-31T12:41:10;99390.44;;;22.03;92.21
9672;BME280;4874;43.568;27.824;2022-10-31T12:49:38;99369.22;;;22.39;93.75
9672;BME280;4874;43.568;27.824;2022-10-31T12:55:03;99381.69;;;22.66;95.23
9672;BME280;4874;43.568;27.824;2022-10-31T12:57:36;99388.56;;;22.16;94.32
9672;BME280;4874;43.568;27.824;2022-10-31T13:00:12;99390.22;;;22.04;93.52
9672;BME280;4874;43.568;27.824;2022-10-31T13:02:49;99369.81;;;21.76;95.45
9672;BME280;4874;43.568;27.824;2022-10-31T13:05:36;99404.31;;;21.74;97.47
9672;BME280;4874;43.568;27.824;2022-10-31T13:11:03;99391.47;;;21.89;96.88
9672;BME280;4874;43.568;27.824;2022-10-31T13:13:37;99397.28;;;21.92;97.61
9672;BME280;4874;43.568;27.824;2022-10-31T13:16:15;99358.63;;;21.85;97.36
9672;BME280;4874;43.568;27.824;2022-10-31T13:18:47;99400.25;;;22.10;96.35
9672;BME280;4874;43.568;27.824;2022-10-31T13:21:21;99397.28;;;21.86;98.93
9672;BME280;4874;43.568;27.824;2022-10-31T13:23:52;99404.81;;;21.90;97.46
9672;BME280;4874;43.568;27.824;2022-10-31T13:26:52;99383.53;;;21.74;100.00
9672;BME280;4874;43.568;27.824;2022-10-31T13:29:33;99392.94;;;21.78;97.72
9672;BME280;4874;43.568;27.824;2022-10-31T13:32:04;99405.03;;;22.02;97.75
9672;BME280;4874;43.568;27.824;2022-10-31T13:34:38;99403.66;;;21.72;99.69
9672;BME280;4874;43.568;27.824;2022-10-31T13:37:32;99409.38;;;21.90;99.66
9672;BME280;4874;43.568;27.824;2022-10-31T13:40:07;99409.06;;;21.72;100.00
9672;BME280;4874;43.568;27.824;2022-10-31T13:42:58;99413.59;;;21.52;100.00
9672;BME280;4874;43.568;27.824;2022-10-31T13:45:29;99407.53;;;21.30;100.00
9672;BME280;4874;43.568;27.824;2022-10-31T13:50:29;99418.44;;;21.16;100.00
9672;BME280;4874;43.568;27.824;2022-10-31T13:55:47;99421.16;;;20.88;100.00
9672;BME280;4874;43.568;27.824;2022-10-31T13:58:28;99421.31;;;21.01;100.00
9672;BME280;4874;43.568;27.824;2022-10-31T14:03:39;99422.41;;;20.85;100.00
9672;BME280;4874;43.568;27.824;2022-10-31T14:06:53;99420.75;;;20.84;100.00
9672;BME280;4874;43.568;27.824;2022-10-31T14:11:58;99427.16;;;20.77;100.00
9672;BME280;4874;43.568;27.824;2022-10-31T14:14:32;99431.47;;;20.71;100.00
9672;BME280;4874;43.568;27.824;2022-10-31T14:17:01;99430.56;;;20.64;100.00
9672;BME280;4874;43.568;27.824;2022-10-31T14:19:27;99429.25;;;20.54;100.00
9672;BME280;4874;43.568;27.824;2022-10-31T14:21:54;99433.41;;;20.50;100.00
9672;BME280;4874;43.568;27.824;2022-10-31T14:26:56;99423.97;;;20.67;100.00
9672;BME280;4874;43.568;27.824;2022-10-31T14:29:24;99426.31;;;20.49;100.00
9672;BME280;4874;43.568;27.824;2022-10-31T14:32:16;99431.25;;;20.45;100.00
9672;BME280;4874;43.568;27.824;2022-10-31T14:34:58;99434.31;;;20.36;100.00
9672;BME280;4874;43.568;27.824;2022-10-31T14:37:55;99439.75;;;20.42;100.00
9672;BME280;4874;43.568;27.824;2022-10-31T14:43:10;99437.72;;;20.23;100.00
9672;BME280;4874;43.568;27.824;2022-10-31T14:46:16;99439.66;;;20.29;100.00
9672;BME280;4874;43.568;27.824;2022-10-31T14:51:36;99438.13;;;20.20;100.00
9672;BME280;4874;43.568;27.824;2022-10-31T14:54:06;99435.00;;;20.02;100.00
9672;BME280;4874;43.568;27.824;2022-10-31T14:56:37;99440.28;;;20.10;100.00
9672;BME280;4874;43.568;27.824;2022-10-31T14:59:11;99439.03;;;20.13;100.00
9672;BME280;4874;43.568;27.824;2022-10-31T15:01:51;99448.19;;;20.33;100.00
9672;BME280;4874;43.568;27.824;2022-10-31T15:04:26;99448.50;;;20.44;100.00
9672;BME280;4874;43.568;27.824;2022-10-31T15:07:11;99444.53;;;20.19;100.00
9672;BME280;4874;43.568;27.824;2022-10-31T15:09:40;99422.03;;;19.70;100.00
9672;BME280;4874;43.568;27.824;2022-10-31T15:12:27;99458.25;;;20.45;100.00
9672;BME280;4874;43.568;27.824;2022-10-31T15:14:54;99453.38;;;20.34;100.00
9672;BME280;4874;43.568;27.824;2022-10-31T15:17:23;99459.56;;;19.71;100.00
9672;BME280;4874;43.568;27.824;2022-10-31T15:19:51;99459.50;;;19.65;100.00
9672;BME280;4874;43.568;27.824;2022-10-31T15:22:22;99456.66;;;19.37;100.00
9672;BME280;4874;43.568;27.824;2022-10-31T15:24:49;99459.53;;;19.07;100.00
9672;BME280;4874;43.568;27.824;2022-10-31T15:27:23;99465.13;;;19.05;100.00
9672;BME280;4874;43.568;27.824;2022-10-31T15:29:54;99465.84;;;18.99;100.00
9672;BME280;4874;43.568;27.824;2022-10-31T15:32:27;99459.56;;;18.92;100.00
9672;BME280;4874;43.568;27.824;2022-10-31T15:34:54;99458.59;;;18.70;100.00
9672;BME280;4874;43.568;27.824;2022-10-31T15:37:28;99465.91;;;18.62;100.00
9672;BME280;4874;43.568;27.824;2022-10-31T15:39:55;99459.88;;;18.45;100.00